createdAt,value
2023-02-05T00:01:43.861Z,1.23
2023-02-05T00:05:45.720Z,1.20
2023-02-05T00:09:47.553Z,1.40
2023-02-05T00:13:49.374Z,1.27
2023-02-05T00:17:51.160Z,1.37
2023-02-05T00:21:52.979Z,1.43
2023-02-05T00:25:54.888Z,1.40
2023-02-05T00:29:56.722Z,1.33
2023-02-05T00:33:58.545Z,1.27
2023-02-05T00:38:00.435Z,1.20
2023-02-05T00:42:02.189Z,1.93
2023-02-05T00:46:04.102Z,1.37
2023-02-05T00:50:06.306Z,1.70
2023-02-05T00:54:08.066Z,1.50
2023-02-05T00:58:10.054Z,1.30
2023-02-05T01:02:11.841Z,1.63
2023-02-05T01:06:13.778Z,1.67
2023-02-05T01:10:15.789Z,1.40
2023-02-05T01:14:17.679Z,1.40
2023-02-05T01:18:19.432Z,1.90
2023-02-05T01:22:21.292Z,1.70
2023-02-05T01:26:23.282Z,1.77
2023-02-05T01:30:25.019Z,1.60
2023-02-05T01:34:26.826Z,1.90
2023-02-05T01:38:28.651Z,1.53
2023-02-05T01:42:32.018Z,1.77
2023-02-05T01:46:34.394Z,1.77
2023-02-05T01:50:54.024Z,1.50
2023-02-05T01:54:57.152Z,1.47
2023-02-05T01:59:16.367Z,1.60
2023-02-05T02:03:18.394Z,1.30
2023-02-05T02:07:21.935Z,1.73
2023-02-05T02:11:23.731Z,1.77
2023-02-05T02:15:26.270Z,1.50
2023-02-05T02:19:40.884Z,1.70
2023-02-05T02:24:34.016Z,2.10
2023-02-05T02:28:46.640Z,2.50
2023-02-05T02:33:09.608Z,2.30
2023-02-05T02:37:40.551Z,2.70
2023-02-05T02:42:08.477Z,1.90
2023-02-05T02:46:23.312Z,2.20
2023-02-05T02:50:33.122Z,2.40
2023-02-05T02:54:36.055Z,2.13
2023-02-05T02:58:50.424Z,2.73
2023-02-05T03:02:55.869Z,2.67
2023-02-05T03:07:06.139Z,2.77
2023-02-05T03:11:13.280Z,2.87
2023-02-05T03:15:15.439Z,2.73
2023-02-05T03:19:17.226Z,3.00
2023-02-05T03:23:19.119Z,2.60
2023-02-05T03:27:22.072Z,2.67
2023-02-05T03:31:33.604Z,2.67
2023-02-05T03:35:59.839Z,2.83
2023-02-05T03:40:26.782Z,2.73
2023-02-05T03:44:50.973Z,2.50
2023-02-05T03:49:20.078Z,2.37
2023-02-05T03:53:32.237Z,2.60
2023-02-05T03:57:49.260Z,2.07
2023-02-05T04:01:51.045Z,2.43
2023-02-05T04:05:52.970Z,2.30
2023-02-05T04:09:54.775Z,1.90
2023-02-05T04:13:56.722Z,2.27
2023-02-05T04:17:58.785Z,2.70
2023-02-05T04:22:00.708Z,2.40
2023-02-05T04:26:02.594Z,2.90
2023-02-05T04:30:06.808Z,2.30
2023-02-05T04:34:08.616Z,2.70
2023-02-05T04:38:12.641Z,2.07
2023-02-05T04:42:14.797Z,2.50
2023-02-05T04:46:16.670Z,2.70
2023-02-05T04:50:18.540Z,2.20
2023-02-05T04:54:20.433Z,2.40
2023-02-05T04:58:22.238Z,2.30
2023-02-05T05:02:24.606Z,2.47
2023-02-05T05:06:26.601Z,2.43
2023-02-05T05:10:28.473Z,2.00
2023-02-05T05:14:30.301Z,2.30
2023-02-05T05:18:32.302Z,2.40
2023-02-05T05:22:34.220Z,2.37
2023-02-05T05:26:36.073Z,2.57
2023-02-05T05:30:42.207Z,2.43
2023-02-05T05:34:44.116Z,2.13
2023-02-05T05:38:46.194Z,2.40
2023-02-05T05:43:06.780Z,2.23
2023-02-05T05:47:08.828Z,2.10
2023-02-05T05:51:10.669Z,2.60
2023-02-05T05:55:12.490Z,2.60
2023-02-05T05:59:14.316Z,2.40
2023-02-05T06:03:16.192Z,2.50
2023-02-05T06:07:18.022Z,2.63
2023-02-05T06:11:19.852Z,2.43
2023-02-05T06:15:21.911Z,2.60
2023-02-05T06:19:23.859Z,2.93
2023-02-05T06:23:25.786Z,2.70
2023-02-05T06:27:30.442Z,2.80
2023-02-05T06:31:32.395Z,3.13
2023-02-05T06:35:34.535Z,2.90
2023-02-05T06:39:37.536Z,2.37
2023-02-05T06:43:39.290Z,2.80
2023-02-05T06:47:44.071Z,3.10
2023-02-05T06:51:45.983Z,3.40
2023-02-05T06:55:47.743Z,2.60
2023-02-05T06:59:52.240Z,2.80
2023-02-05T07:03:56.399Z,2.07
2023-02-05T07:07:58.402Z,1.97
2023-02-05T07:12:00.449Z,1.87
2023-02-05T07:16:06.949Z,3.20
2023-02-05T07:20:09.475Z,2.53
2023-02-05T07:24:14.775Z,2.10
2023-02-05T07:28:16.675Z,2.37
2023-02-05T07:32:19.052Z,2.40
2023-02-05T07:36:23.803Z,1.70
2023-02-05T07:40:25.591Z,1.93
2023-02-05T07:44:27.625Z,2.40
2023-02-05T07:48:29.801Z,2.50
2023-02-05T07:52:32.383Z,2.27
2023-02-05T07:56:34.706Z,2.57
2023-02-05T08:00:36.683Z,2.20
2023-02-05T08:04:45.724Z,2.00
2023-02-05T08:08:47.678Z,2.00
2023-02-05T08:12:49.602Z,2.20
2023-02-05T08:16:51.655Z,2.30
2023-02-05T08:20:54.544Z,1.80
2023-02-05T08:24:56.464Z,1.73
2023-02-05T08:28:59.920Z,1.97
2023-02-05T08:33:01.829Z,2.10
2023-02-05T08:37:04.370Z,2.00
2023-02-05T08:41:12.823Z,1.90
2023-02-05T08:45:17.346Z,2.07
2023-02-05T08:49:24.186Z,2.27
2023-02-05T08:53:26.271Z,1.83
2023-02-05T08:57:30.105Z,2.00
2023-02-05T09:01:32.336Z,2.00
2023-02-05T09:05:34.619Z,1.73
2023-02-05T09:09:47.610Z,1.63
2023-02-05T09:14:41.168Z,1.77
2023-02-05T09:18:46.334Z,1.50
2023-02-05T09:22:52.367Z,2.00
2023-02-05T09:26:54.739Z,1.40
2023-02-05T09:30:56.941Z,1.30
2023-02-05T09:34:59.045Z,1.60
2023-02-05T09:39:14.702Z,1.43
2023-02-05T09:43:54.888Z,1.77
2023-02-05T09:48:23.835Z,1.60
2023-02-05T09:52:36.477Z,1.57
2023-02-05T09:56:58.407Z,1.40
2023-02-05T10:01:44.008Z,1.27
2023-02-05T10:06:22.155Z,1.30
2023-02-05T10:10:28.866Z,1.40
2023-02-05T10:15:13.109Z,1.30
2023-02-05T10:19:35.309Z,1.40
2023-02-05T10:24:09.122Z,1.60
2023-02-05T10:28:52.001Z,1.57
2023-02-05T10:33:05.835Z,1.40
2023-02-05T10:37:22.761Z,1.50
2023-02-05T10:41:31.026Z,1.57
2023-02-05T10:45:33.349Z,1.50
2023-02-05T10:50:01.407Z,1.53
2023-02-05T10:54:03.612Z,1.30
2023-02-05T10:58:34.950Z,1.10
2023-02-05T11:02:44.682Z,1.50
2023-02-05T11:06:53.167Z,1.37
2023-02-05T11:10:55.183Z,1.20
2023-02-05T11:15:01.017Z,1.30
2023-02-05T11:19:05.138Z,1.30
2023-02-05T11:23:21.138Z,1.70
2023-02-05T11:27:35.170Z,1.20
2023-02-05T11:31:37.118Z,1.00
2023-02-05T11:35:39.120Z,1.30
2023-02-05T11:39:41.187Z,0.80
2023-02-05T11:43:53.003Z,0.93
2023-02-05T11:47:55.074Z,0.80
2023-02-05T11:52:02.506Z,1.37
2023-02-05T11:56:12.695Z,1.43
2023-02-05T12:00:21.982Z,1.13
2023-02-05T12:04:24.087Z,1.57
2023-02-05T12:08:43.036Z,1.30
2023-02-05T12:13:02.981Z,1.63
2023-02-05T12:17:31.477Z,1.40
2023-02-05T12:21:53.813Z,3.30
2023-02-05T12:26:21.017Z,3.10
2023-02-05T12:30:35.190Z,2.57
2023-02-05T12:34:57.421Z,2.60
2023-02-05T12:39:54.669Z,1.93
2023-02-05T12:44:37.768Z,1.33
2023-02-05T12:49:11.738Z,1.40
2023-02-05T12:53:44.751Z,1.70
2023-02-05T12:58:04.893Z,1.30
2023-02-05T13:02:19.720Z,2.03
2023-02-05T13:06:29.966Z,1.47
2023-02-05T13:10:56.729Z,1.10
2023-02-05T13:15:21.193Z,0.83
2023-02-05T13:19:34.291Z,0.63
2023-02-05T13:23:59.120Z,0.70
2023-02-05T13:28:23.095Z,0.70
2023-02-05T13:32:25.997Z,0.97
2023-02-05T13:37:14.662Z,1.10
2023-02-05T13:41:25.655Z,1.10
2023-02-05T13:45:48.949Z,1.00
2023-02-05T13:50:33.755Z,1.10
2023-02-05T13:54:40.853Z,0.97
2023-02-05T13:58:59.161Z,1.30
2023-02-05T14:03:05.785Z,1.17
2023-02-05T14:07:30.855Z,1.10
2023-02-05T14:12:16.754Z,1.30
2023-02-05T14:16:26.937Z,2.87
2023-02-05T14:20:42.011Z,1.30
2023-02-05T14:24:48.373Z,1.23
2023-02-05T14:28:55.359Z,1.40
2023-02-05T14:33:39.230Z,1.40
2023-02-05T14:37:43.007Z,1.30
2023-02-05T14:42:00.143Z,2.00
2023-02-05T14:46:44.773Z,1.33
2023-02-05T14:51:27.005Z,1.37
2023-02-05T14:56:35.576Z,1.27
2023-02-05T15:00:47.745Z,1.77
2023-02-05T15:05:04.617Z,1.30
2023-02-05T15:09:44.597Z,1.37
2023-02-05T15:14:24.512Z,1.50
2023-02-05T15:18:37.410Z,0.93
2023-02-05T15:22:41.266Z,1.10
2023-02-05T15:27:00.920Z,1.10
2023-02-05T15:31:11.954Z,1.13
2023-02-05T15:35:16.986Z,1.00
2023-02-05T15:39:43.432Z,1.30
2023-02-05T15:44:10.228Z,1.50
2023-02-05T15:48:14.454Z,1.63
2023-02-05T15:52:26.142Z,1.70
2023-02-05T15:56:36.664Z,1.20
2023-02-05T16:00:38.516Z,1.57
2023-02-05T16:04:40.856Z,1.67
2023-02-05T16:08:47.687Z,1.87
2023-02-05T16:13:14.876Z,2.17
2023-02-05T16:17:27.884Z,2.23
2023-02-05T16:21:38.089Z,2.90
2023-02-05T16:26:04.749Z,2.27
2023-02-05T16:30:16.696Z,2.40
2023-02-05T16:34:18.779Z,2.00
2023-02-05T16:38:23.972Z,2.03
2023-02-05T16:42:44.417Z,2.27
2023-02-05T16:46:52.711Z,2.13
2023-02-05T16:50:56.706Z,2.53
2023-02-05T16:55:28.451Z,1.97
2023-02-05T16:59:55.996Z,2.37
2023-02-05T17:03:57.840Z,2.63
2023-02-05T17:08:02.341Z,2.10
2023-02-05T17:12:37.394Z,2.37
2023-02-05T17:16:42.834Z,2.40
2023-02-05T17:20:47.293Z,2.40
2023-02-05T17:24:49.908Z,2.90
2023-02-05T17:29:05.775Z,2.43
2023-02-05T17:33:28.866Z,2.90
2023-02-05T17:37:30.656Z,2.63
2023-02-05T17:41:54.512Z,3.53
2023-02-05T17:45:56.391Z,3.20
2023-02-05T17:49:58.271Z,3.30
2023-02-05T17:54:00.181Z,2.93
2023-02-05T17:58:02.930Z,4.93
2023-02-05T18:02:06.471Z,4.80
2023-02-05T18:06:09.651Z,4.73
2023-02-05T18:10:23.162Z,4.17
2023-02-05T18:14:25.451Z,4.53
2023-02-05T18:18:28.514Z,4.60
2023-02-05T18:22:31.396Z,4.57
2023-02-05T18:26:33.432Z,4.40
2023-02-05T18:30:35.772Z,4.97
2023-02-05T18:34:38.106Z,4.63
2023-02-05T18:38:40.658Z,4.57
2023-02-05T18:42:42.828Z,4.57
2023-02-05T18:46:47.895Z,4.13
2023-02-05T18:50:49.709Z,4.37
2023-02-05T18:54:55.099Z,5.57
2023-02-05T18:59:01.581Z,5.37
2023-02-05T19:03:07.612Z,7.20
2023-02-05T19:07:09.533Z,6.53
2023-02-05T19:11:27.848Z,7.43
2023-02-05T19:15:29.928Z,8.40
2023-02-05T19:19:32.170Z,7.80
2023-02-05T19:23:36.689Z,7.07
2023-02-05T19:27:38.743Z,7.53
2023-02-05T19:31:41.833Z,7.77
2023-02-05T19:35:44.899Z,8.40
2023-02-05T19:39:49.653Z,9.43
2023-02-05T19:44:08.396Z,9.20
2023-02-05T19:48:13.314Z,9.20
2023-02-05T19:52:21.950Z,9.90
2023-02-05T19:56:24.432Z,10.67
2023-02-05T20:00:38.331Z,9.77
2023-02-05T20:04:43.696Z,11.73
2023-02-05T20:08:48.782Z,11.90
2023-02-05T20:13:00.468Z,11.33
2023-02-05T20:17:05.147Z,11.97
2023-02-05T20:21:15.491Z,12.30
2023-02-05T20:25:32.126Z,12.60
2023-02-05T20:29:52.998Z,13.47
2023-02-05T20:34:00.899Z,13.20
2023-02-05T20:38:02.978Z,13.90
2023-02-05T20:42:07.528Z,11.57
2023-02-05T20:46:29.325Z,11.33
2023-02-05T20:50:33.142Z,11.17
2023-02-05T20:54:35.754Z,10.73
2023-02-05T20:58:37.917Z,10.83
2023-02-05T21:02:47.850Z,11.50
2023-02-05T21:06:57.425Z,11.23
2023-02-05T21:11:07.852Z,10.73
2023-02-05T21:15:19.252Z,11.93
2023-02-05T21:19:21.329Z,10.30
2023-02-05T21:23:25.398Z,10.30
2023-02-05T21:27:27.302Z,11.37
2023-02-05T21:31:35.801Z,11.23
2023-02-05T21:35:38.829Z,9.67
2023-02-05T21:39:41.033Z,8.83
2023-02-05T21:43:43.313Z,9.97
2023-02-05T21:47:45.416Z,10.33
2023-02-05T21:51:48.341Z,10.27
2023-02-05T21:55:50.470Z,9.57
2023-02-05T21:59:52.846Z,9.40
2023-02-05T22:04:07.360Z,14.20
2023-02-05T22:08:11.752Z,11.07
2023-02-05T22:12:14.224Z,10.80
2023-02-05T22:16:19.299Z,10.40
2023-02-05T22:20:21.193Z,10.00
2023-02-05T22:24:25.608Z,9.80
2023-02-05T22:28:27.721Z,10.37
2023-02-05T22:32:29.597Z,10.57
2023-02-05T22:36:32.602Z,10.67
2023-02-05T22:40:34.463Z,9.93
2023-02-05T22:44:36.435Z,10.03
2023-02-05T22:48:40.003Z,9.90
2023-02-05T22:52:41.823Z,9.20
2023-02-05T22:56:44.313Z,9.40
2023-02-05T23:00:46.400Z,10.67
2023-02-05T23:04:48.210Z,10.03
2023-02-05T23:09:08.466Z,9.03
2023-02-05T23:13:10.332Z,8.50
2023-02-05T23:17:12.126Z,9.00
2023-02-05T23:21:22.130Z,7.83
2023-02-05T23:25:24.264Z,8.87
2023-02-05T23:29:27.078Z,7.97
2023-02-05T23:33:29.359Z,7.70
2023-02-05T23:37:31.256Z,7.13
2023-02-05T23:41:36.446Z,7.63
2023-02-05T23:45:38.626Z,7.67
2023-02-05T23:49:40.492Z,7.30
2023-02-05T23:53:42.211Z,7.47
2023-02-05T23:57:44.142Z,7.83
